createdAt,value
2016-10-20T00:00:12.017Z,20.30
2016-10-20T00:01:11.784Z,20.30
2016-10-20T00:02:12.690Z,20.30
2016-10-20T00:03:12.411Z,20.30
2016-10-20T00:04:11.519Z,20.30
2016-10-20T00:05:11.967Z,20.30
2016-10-20T00:06:10.971Z,20.30
2016-10-20T00:07:12.365Z,20.30
2016-10-20T00:08:12.225Z,20.30
2016-10-20T00:09:11.028Z,20.30
2016-10-20T00:10:11.432Z,20.30
2016-10-20T00:11:11.217Z,20.30
2016-10-20T00:12:11.553Z,20.30
2016-10-20T00:13:11.925Z,20.30
2016-10-20T00:14:11.976Z,20.30
2016-10-20T00:15:12.007Z,20.30
2016-10-20T00:16:11.308Z,20.30
2016-10-20T00:17:12.125Z,20.30
2016-10-20T00:18:11.416Z,20.30
2016-10-20T00:19:11.790Z,20.30
2016-10-20T00:20:10.855Z,20.30
2016-10-20T00:21:12.150Z,20.30
2016-10-20T00:22:11.855Z,20.30
2016-10-20T00:23:11.216Z,20.30
2016-10-20T00:24:11.691Z,20.30
2016-10-20T00:25:12.544Z,20.30
2016-10-20T00:26:12.392Z,20.30
2016-10-20T00:27:11.507Z,20.30
2016-10-20T00:28:12.266Z,20.30
2016-10-20T00:29:12.112Z,20.30
2016-10-20T00:30:12.017Z,20.30
2016-10-20T00:31:11.679Z,20.30
2016-10-20T00:32:12.367Z,20.30
2016-10-20T00:33:11.501Z,20.30
2016-10-20T00:34:09.357Z,20.30
2016-10-20T00:35:12.279Z,20.30
2016-10-20T00:36:11.292Z,20.30
2016-10-20T00:37:11.543Z,20.30
2016-10-20T00:38:10.041Z,20.30
2016-10-20T00:39:11.157Z,20.30
2016-10-20T00:40:11.936Z,20.30
2016-10-20T00:41:11.609Z,20.30
2016-10-20T00:42:11.669Z,20.30
2016-10-20T00:43:12.062Z,20.30
2016-10-20T00:44:11.800Z,20.30
2016-10-20T00:45:11.661Z,20.30
2016-10-20T00:46:11.668Z,20.30
2016-10-20T00:47:12.426Z,20.30
2016-10-20T00:48:11.881Z,20.30
2016-10-20T00:49:12.662Z,20.30
2016-10-20T00:50:12.666Z,20.30
2016-10-20T00:51:12.215Z,20.30
2016-10-20T00:52:12.018Z,20.30
2016-10-20T00:53:11.635Z,20.30
2016-10-20T00:54:12.384Z,20.30
2016-10-20T00:55:11.322Z,20.30
2016-10-20T00:56:09.936Z,20.30
2016-10-20T00:57:12.405Z,20.20
2016-10-20T00:58:11.919Z,20.20
2016-10-20T00:59:10.333Z,20.30
2016-10-20T01:00:09.835Z,20.30
2016-10-20T01:01:12.188Z,20.30
2016-10-20T01:02:12.586Z,20.30
2016-10-20T01:03:13.466Z,20.30
2016-10-20T01:04:12.070Z,20.30
2016-10-20T01:05:13.309Z,20.30
2016-10-20T01:06:11.908Z,20.30
2016-10-20T01:07:12.636Z,20.30
2016-10-20T01:08:12.335Z,20.30
2016-10-20T01:09:12.444Z,20.30
2016-10-20T01:10:13.378Z,20.30
2016-10-20T01:11:12.166Z,20.30
2016-10-20T01:12:12.587Z,20.30
2016-10-20T01:13:11.476Z,20.20
2016-10-20T01:14:09.724Z,20.20
2016-10-20T01:15:11.476Z,20.20
2016-10-20T01:16:11.877Z,20.20
2016-10-20T01:17:12.334Z,20.20
2016-10-20T01:18:11.644Z,20.20
2016-10-20T01:19:12.103Z,20.20
2016-10-20T01:20:12.291Z,20.20
2016-10-20T01:21:11.346Z,20.20
2016-10-20T01:22:11.708Z,20.20
2016-10-20T01:23:11.920Z,20.20
2016-10-20T01:24:12.734Z,20.20
2016-10-20T01:25:12.297Z,20.20
2016-10-20T01:26:11.301Z,20.30
2016-10-20T01:27:13.700Z,20.30
2016-10-20T01:28:11.840Z,20.30
2016-10-20T01:29:12.861Z,20.30
2016-10-20T01:30:12.321Z,20.30
2016-10-20T01:31:12.120Z,20.30
2016-10-20T01:32:12.609Z,20.30
2016-10-20T01:33:11.287Z,20.30
2016-10-20T01:34:13.293Z,20.20
2016-10-20T01:35:11.089Z,20.30
2016-10-20T01:36:09.548Z,20.30
2016-10-20T01:37:11.893Z,20.30
2016-10-20T01:38:12.186Z,20.30
2016-10-20T01:39:12.301Z,20.30
2016-10-20T01:40:12.219Z,20.30
2016-10-20T01:41:11.773Z,20.30
2016-10-20T01:42:09.228Z,20.30
2016-10-20T01:43:12.226Z,20.30
2016-10-20T01:44:11.462Z,20.30
2016-10-20T01:45:12.253Z,20.30
2016-10-20T01:46:12.793Z,20.30
2016-10-20T01:47:11.688Z,20.20
2016-10-20T01:48:12.252Z,20.20
2016-10-20T01:49:09.694Z,20.30
2016-10-20T01:50:11.426Z,20.30
2016-10-20T01:51:12.455Z,20.30
2016-10-20T01:52:12.345Z,20.20
2016-10-20T01:53:11.915Z,20.20
2016-10-20T01:54:14.016Z,20.20
2016-10-20T01:55:12.646Z,20.30
2016-10-20T01:56:12.041Z,20.20
2016-10-20T01:57:11.505Z,20.30
2016-10-20T01:58:12.216Z,20.20
2016-10-20T01:59:11.656Z,20.20
2016-10-20T02:00:13.611Z,20.30
2016-10-20T02:01:09.453Z,20.20
2016-10-20T02:02:12.976Z,20.20
2016-10-20T02:03:12.673Z,20.20
2016-10-20T02:04:08.812Z,20.20
2016-10-20T02:05:12.653Z,20.20
2016-10-20T02:06:14.338Z,20.20
2016-10-20T02:07:13.115Z,20.20
2016-10-20T02:08:11.862Z,20.20
2016-10-20T02:09:12.434Z,20.20
2016-10-20T02:10:11.495Z,20.20
2016-10-20T02:11:11.931Z,20.30
2016-10-20T02:12:11.999Z,20.30
2016-10-20T02:13:12.150Z,20.30
2016-10-20T02:14:11.782Z,20.30
2016-10-20T02:15:12.616Z,20.20
2016-10-20T02:16:12.323Z,20.30
2016-10-20T02:17:12.934Z,20.20
2016-10-20T02:18:12.102Z,20.20
2016-10-20T02:19:19.205Z,20.20
2016-10-20T02:20:11.159Z,20.20
2016-10-20T02:21:12.103Z,20.30
2016-10-20T02:22:12.261Z,20.30
2016-10-20T02:23:12.349Z,20.30
2016-10-20T02:24:11.769Z,20.20
2016-10-20T02:25:10.572Z,20.20
2016-10-20T02:26:12.991Z,20.20
2016-10-20T02:27:11.934Z,20.20
2016-10-20T02:28:14.363Z,20.20
2016-10-20T02:29:13.356Z,20.20
2016-10-20T02:30:11.523Z,20.20
2016-10-20T02:31:12.264Z,20.20
2016-10-20T02:32:12.148Z,20.20
2016-10-20T02:33:10.052Z,20.20
2016-10-20T02:34:12.431Z,20.20
2016-10-20T02:35:12.416Z,20.20
2016-10-20T02:36:11.776Z,20.20
2016-10-20T02:37:10.478Z,20.20
2016-10-20T02:38:12.795Z,20.20
2016-10-20T02:39:12.337Z,20.20
2016-10-20T02:40:11.686Z,20.20
2016-10-20T02:41:12.638Z,20.20
2016-10-20T02:42:11.763Z,20.20
2016-10-20T02:43:13.759Z,20.20
2016-10-20T02:44:13.221Z,20.20
2016-10-20T02:45:11.920Z,20.20
2016-10-20T02:46:11.511Z,20.20
2016-10-20T02:47:12.421Z,20.20
2016-10-20T02:48:13.114Z,20.20
2016-10-20T02:49:12.042Z,20.20
2016-10-20T02:50:10.893Z,20.20
2016-10-20T02:51:09.766Z,20.20
2016-10-20T02:52:12.515Z,20.20
2016-10-20T02:53:11.747Z,20.20
2016-10-20T02:54:13.561Z,20.20
2016-10-20T02:55:13.750Z,20.20
2016-10-20T02:56:12.388Z,20.20
2016-10-20T02:57:12.088Z,20.20
2016-10-20T02:58:11.036Z,20.20
2016-10-20T02:59:11.593Z,20.20
2016-10-20T03:00:11.665Z,20.20
2016-10-20T03:01:11.762Z,20.20
2016-10-20T03:02:12.443Z,20.20
2016-10-20T03:03:12.157Z,20.20
2016-10-20T03:04:11.828Z,20.20
2016-10-20T03:05:11.894Z,20.20
2016-10-20T03:06:13.477Z,20.20
2016-10-20T03:07:12.331Z,20.20
2016-10-20T03:08:17.815Z,20.20
2016-10-20T03:09:13.272Z,20.20
2016-10-20T03:10:12.873Z,20.20
2016-10-20T03:11:12.513Z,20.20
2016-10-20T03:12:12.134Z,20.20
2016-10-20T03:13:12.291Z,20.20
2016-10-20T03:14:08.942Z,20.20
2016-10-20T03:15:11.433Z,20.20
2016-10-20T03:16:12.419Z,20.20
2016-10-20T03:17:10.325Z,20.20
2016-10-20T03:18:12.408Z,20.20
2016-10-20T03:19:11.970Z,20.20
2016-10-20T03:20:11.714Z,20.20
2016-10-20T03:21:13.090Z,20.20
2016-10-20T03:22:11.863Z,20.20
2016-10-20T03:23:11.756Z,20.20
2016-10-20T03:24:13.651Z,20.20
2016-10-20T03:25:13.241Z,20.20
2016-10-20T03:26:11.102Z,20.20
2016-10-20T03:27:11.550Z,20.20
2016-10-20T03:28:12.241Z,20.20
2016-10-20T03:29:11.899Z,20.20
2016-10-20T03:30:12.678Z,20.20
2016-10-20T03:31:12.740Z,20.20
2016-10-20T03:32:13.257Z,20.20
2016-10-20T03:33:09.773Z,20.20
2016-10-20T03:34:12.575Z,20.20
2016-10-20T03:35:12.336Z,20.20
2016-10-20T03:36:11.332Z,20.20
2016-10-20T03:37:14.565Z,20.20
2016-10-20T03:38:15.255Z,20.20
2016-10-20T03:39:11.476Z,20.20
2016-10-20T03:40:11.984Z,20.20
2016-10-20T03:41:13.899Z,20.20
2016-10-20T03:42:12.418Z,20.20
2016-10-20T03:43:12.075Z,20.20
2016-10-20T03:44:13.252Z,20.20
2016-10-20T03:45:11.097Z,20.20
2016-10-20T03:46:08.943Z,20.20
2016-10-20T03:47:09.814Z,20.20
2016-10-20T03:48:11.903Z,20.20
2016-10-20T03:49:14.577Z,20.20
2016-10-20T03:50:12.707Z,20.20
2016-10-20T03:51:12.137Z,20.20
2016-10-20T03:52:11.208Z,20.20
2016-10-20T03:53:11.163Z,20.10
2016-10-20T03:54:12.625Z,20.20
2016-10-20T03:55:12.165Z,20.20
2016-10-20T03:56:09.735Z,20.20
2016-10-20T03:57:11.730Z,20.20
2016-10-20T03:58:11.658Z,20.10
2016-10-20T03:59:12.119Z,20.20
2016-10-20T04:00:09.799Z,20.20
2016-10-20T04:01:11.716Z,20.20
2016-10-20T04:02:11.633Z,20.20
2016-10-20T04:03:12.297Z,20.20
2016-10-20T04:04:12.185Z,20.20
2016-10-20T04:05:12.628Z,20.20
2016-10-20T04:06:12.099Z,20.20
2016-10-20T04:07:11.147Z,20.20
2016-10-20T04:08:11.417Z,20.20
2016-10-20T04:09:11.665Z,20.20
2016-10-20T04:10:12.126Z,20.20
2016-10-20T04:11:08.418Z,20.20
2016-10-20T04:12:12.187Z,20.20
2016-10-20T04:13:09.943Z,20.20
2016-10-20T04:14:11.872Z,20.20
2016-10-20T04:15:12.589Z,20.20
2016-10-20T04:16:12.167Z,20.20
2016-10-20T04:17:11.827Z,20.20
2016-10-20T04:18:11.797Z,20.20
2016-10-20T04:19:12.680Z,20.20
2016-10-20T04:20:12.035Z,20.20
2016-10-20T04:21:11.716Z,20.20
2016-10-20T04:22:12.336Z,20.20
2016-10-20T04:23:13.182Z,20.20
2016-10-20T04:24:12.480Z,20.20
2016-10-20T04:25:14.489Z,20.20
2016-10-20T04:26:16.015Z,20.20
2016-10-20T04:27:15.562Z,20.20
2016-10-20T04:28:12.038Z,20.20
2016-10-20T04:29:11.970Z,20.20
2016-10-20T04:30:11.203Z,20.20
2016-10-20T04:31:12.050Z,20.20
2016-10-20T04:32:11.282Z,20.20
2016-10-20T04:33:13.041Z,20.20
2016-10-20T04:34:11.038Z,20.20
2016-10-20T04:35:12.379Z,20.20
2016-10-20T04:36:12.422Z,20.20
2016-10-20T04:37:11.327Z,20.20
2016-10-20T04:38:08.946Z,20.20
2016-10-20T04:39:12.636Z,20.20
2016-10-20T04:40:13.298Z,20.20
2016-10-20T04:41:12.210Z,20.20
2016-10-20T04:42:11.826Z,20.20
2016-10-20T04:43:11.967Z,20.20
2016-10-20T04:44:12.020Z,20.20
2016-10-20T04:45:12.685Z,20.20
2016-10-20T04:46:12.007Z,20.20
2016-10-20T04:47:10.980Z,20.20
2016-10-20T04:48:11.578Z,20.20
2016-10-20T04:49:12.055Z,20.20
2016-10-20T04:50:11.047Z,20.20
2016-10-20T04:51:11.452Z,20.20
2016-10-20T04:52:12.735Z,20.20
2016-10-20T04:53:11.760Z,20.20
2016-10-20T04:54:12.231Z,20.20
2016-10-20T04:55:12.888Z,20.20
2016-10-20T04:56:11.937Z,20.20
2016-10-20T04:57:11.828Z,20.20
2016-10-20T04:58:12.006Z,20.20
2016-10-20T04:59:11.670Z,20.20
2016-10-20T05:00:11.749Z,20.20
2016-10-20T05:01:10.352Z,20.20
2016-10-20T05:02:11.737Z,20.20
2016-10-20T05:03:11.820Z,20.20
2016-10-20T05:04:12.726Z,20.20
2016-10-20T05:05:12.856Z,20.20
2016-10-20T05:06:11.851Z,20.20
2016-10-20T05:07:12.491Z,20.20
2016-10-20T05:08:12.526Z,20.20
2016-10-20T05:09:13.444Z,20.20
2016-10-20T05:10:12.434Z,20.20
2016-10-20T05:11:11.355Z,20.20
2016-10-20T05:12:11.594Z,20.20
2016-10-20T05:13:11.574Z,20.20
2016-10-20T05:14:12.089Z,20.20
2016-10-20T05:15:12.313Z,20.20
2016-10-20T05:16:11.303Z,20.20
2016-10-20T05:17:12.124Z,20.20
2016-10-20T05:18:11.834Z,20.20
2016-10-20T05:19:12.539Z,20.20
2016-10-20T05:20:12.102Z,20.20
2016-10-20T05:21:11.971Z,20.20
2016-10-20T05:22:10.878Z,20.20
2016-10-20T05:23:11.717Z,20.20
2016-10-20T05:24:12.971Z,20.20
2016-10-20T05:25:12.358Z,20.20
2016-10-20T05:26:11.951Z,20.20
2016-10-20T05:27:12.437Z,20.20
2016-10-20T05:28:12.260Z,20.20
2016-10-20T05:29:09.320Z,20.20
2016-10-20T05:30:11.938Z,20.20
2016-10-20T05:31:11.935Z,20.20
2016-10-20T05:32:14.946Z,20.20
2016-10-20T05:33:11.809Z,20.20
2016-10-20T05:34:11.673Z,20.20
2016-10-20T05:35:11.768Z,20.20
2016-10-20T05:36:13.537Z,20.20
2016-10-20T05:37:11.610Z,20.20
2016-10-20T05:38:12.754Z,20.20
2016-10-20T05:39:12.354Z,20.20
2016-10-20T05:40:09.199Z,20.20
2016-10-20T05:41:12.507Z,20.20
2016-10-20T05:42:12.217Z,20.20
2016-10-20T05:43:11.325Z,20.20
2016-10-20T05:44:12.030Z,20.20
2016-10-20T05:45:09.540Z,20.20
2016-10-20T05:46:11.812Z,20.20
2016-10-20T05:47:11.862Z,20.20
2016-10-20T05:48:12.448Z,20.20
2016-10-20T05:49:11.961Z,20.20
2016-10-20T05:50:11.685Z,20.20
2016-10-20T05:51:11.749Z,20.20
2016-10-20T05:52:13.442Z,20.20
2016-10-20T05:53:11.389Z,20.20
2016-10-20T05:54:12.112Z,20.20
2016-10-20T05:55:11.719Z,20.20
2016-10-20T05:56:11.660Z,20.20
2016-10-20T05:57:12.523Z,20.20
2016-10-20T05:58:12.177Z,20.20
2016-10-20T05:59:11.665Z,20.20
2016-10-20T06:00:11.609Z,20.20
2016-10-20T06:01:12.151Z,20.20
2016-10-20T06:02:11.930Z,20.20
2016-10-20T06:03:10.992Z,20.20
2016-10-20T06:04:11.762Z,20.20
2016-10-20T06:05:11.643Z,20.20
2016-10-20T06:06:12.261Z,20.20
2016-10-20T06:07:12.005Z,20.20
2016-10-20T06:08:11.979Z,20.20
2016-10-20T06:09:12.731Z,20.20
2016-10-20T06:10:10.328Z,20.20
2016-10-20T06:11:12.302Z,20.20
2016-10-20T06:12:11.862Z,20.20
2016-10-20T06:13:11.977Z,20.20
2016-10-20T06:14:10.979Z,20.20
2016-10-20T06:15:12.712Z,20.20
2016-10-20T06:16:12.443Z,20.20
2016-10-20T06:17:11.768Z,20.20
2016-10-20T06:18:11.930Z,20.20
2016-10-20T06:19:12.864Z,20.20
2016-10-20T06:20:12.122Z,20.20
2016-10-20T06:21:14.087Z,20.20
2016-10-20T06:22:09.843Z,20.20
2016-10-20T06:23:11.916Z,20.20
2016-10-20T06:24:14.118Z,20.30
2016-10-20T06:25:11.411Z,20.30
2016-10-20T06:26:12.095Z,20.30
2016-10-20T06:27:13.047Z,20.30
2016-10-20T06:28:11.529Z,20.30
2016-10-20T06:29:12.362Z,20.30
2016-10-20T06:30:11.522Z,20.30
2016-10-20T06:31:10.038Z,20.30
2016-10-20T06:32:10.110Z,20.30
2016-10-20T06:33:11.252Z,20.30
2016-10-20T06:34:11.932Z,20.30
2016-10-20T06:35:11.541Z,20.30
2016-10-20T06:36:12.080Z,20.30
2016-10-20T06:37:11.532Z,20.20
2016-10-20T06:38:14.203Z,20.20
2016-10-20T06:39:11.239Z,20.20
2016-10-20T06:40:11.221Z,20.10
2016-10-20T06:41:11.255Z,20.10
2016-10-20T06:42:11.253Z,20.10
2016-10-20T06:43:12.972Z,20.10
2016-10-20T06:44:11.569Z,20.10
2016-10-20T06:45:12.359Z,20.00
2016-10-20T06:46:09.668Z,20.00
2016-10-20T06:47:11.955Z,20.00
2016-10-20T06:48:11.802Z,20.00
2016-10-20T06:49:11.407Z,19.90
2016-10-20T06:50:13.213Z,19.90
2016-10-20T06:51:13.092Z,19.90
2016-10-20T06:52:10.989Z,19.90
2016-10-20T06:53:12.488Z,19.90
2016-10-20T06:54:13.101Z,19.90
2016-10-20T06:55:13.391Z,19.90
2016-10-20T06:56:13.286Z,19.90
2016-10-20T06:57:11.905Z,19.80
2016-10-20T06:58:11.742Z,19.20
2016-10-20T06:59:11.695Z,18.30
2016-10-20T07:00:11.596Z,17.80
2016-10-20T07:01:11.840Z,17.40
2016-10-20T07:02:11.979Z,17.00
2016-10-20T07:03:12.065Z,16.90
2016-10-20T07:04:11.274Z,16.60
2016-10-20T07:05:11.233Z,16.60
2016-10-20T07:06:11.340Z,16.40
2016-10-20T07:07:11.839Z,16.20
2016-10-20T07:08:11.908Z,16.00
2016-10-20T07:09:12.626Z,16.20
2016-10-20T07:10:12.385Z,16.50
2016-10-20T07:11:11.805Z,16.90
2016-10-20T07:12:11.051Z,17.20
2016-10-20T07:13:11.890Z,17.50
2016-10-20T07:14:11.702Z,17.80
2016-10-20T07:15:10.086Z,18.10
2016-10-20T07:16:14.347Z,18.30
2016-10-20T07:17:11.995Z,18.50
2016-10-20T07:18:12.679Z,18.60
2016-10-20T07:19:11.542Z,18.70
2016-10-20T07:20:13.581Z,18.90
2016-10-20T07:21:11.533Z,19.00
2016-10-20T07:22:12.338Z,19.10
2016-10-20T07:23:11.345Z,19.20
2016-10-20T07:24:12.264Z,19.20
2016-10-20T07:25:11.278Z,19.30
2016-10-20T07:26:11.235Z,19.30
2016-10-20T07:27:12.102Z,19.40
2016-10-20T07:28:11.111Z,19.40
2016-10-20T07:29:12.842Z,19.40
2016-10-20T07:30:11.755Z,19.40
2016-10-20T07:31:13.573Z,19.40
2016-10-20T07:32:09.975Z,19.50
2016-10-20T07:33:11.376Z,19.50
2016-10-20T07:34:11.909Z,19.50
2016-10-20T07:35:12.473Z,19.50
2016-10-20T07:36:12.274Z,19.50
2016-10-20T07:37:13.123Z,19.50
2016-10-20T07:38:11.859Z,19.50
2016-10-20T07:39:13.500Z,19.50
2016-10-20T07:40:12.470Z,19.50
2016-10-20T07:41:12.121Z,19.60
2016-10-20T07:42:13.464Z,19.60
2016-10-20T07:43:11.862Z,19.60
2016-10-20T07:44:11.864Z,19.60
2016-10-20T07:45:09.276Z,19.60
2016-10-20T07:46:11.570Z,19.60
2016-10-20T07:47:12.157Z,19.60
2016-10-20T07:48:11.215Z,19.60
2016-10-20T07:49:12.955Z,19.60
2016-10-20T07:50:12.681Z,19.60
2016-10-20T07:51:12.575Z,19.60
2016-10-20T07:52:11.543Z,19.60
2016-10-20T07:53:11.908Z,19.70
2016-10-20T07:54:12.650Z,19.70
2016-10-20T07:55:11.567Z,19.70
2016-10-20T07:56:12.617Z,19.70
2016-10-20T07:57:13.235Z,19.70
2016-10-20T07:58:13.161Z,19.70
2016-10-20T07:59:08.897Z,19.70
2016-10-20T08:00:13.144Z,19.70
2016-10-20T08:01:11.243Z,19.70
2016-10-20T08:02:11.218Z,19.70
2016-10-20T08:03:13.600Z,19.70
2016-10-20T08:04:12.297Z,19.70
2016-10-20T08:05:11.782Z,19.70
2016-10-20T08:06:11.273Z,19.70
2016-10-20T08:07:17.623Z,19.70
2016-10-20T08:08:11.292Z,19.70
2016-10-20T08:09:11.754Z,19.70
2016-10-20T08:10:11.675Z,19.70
2016-10-20T08:11:12.253Z,19.80
2016-10-20T08:12:11.976Z,19.80
2016-10-20T08:13:10.919Z,19.80
2016-10-20T08:14:13.862Z,19.80
2016-10-20T08:15:11.392Z,19.80
2016-10-20T08:16:13.172Z,19.80
2016-10-20T08:17:11.931Z,19.80
2016-10-20T08:18:11.911Z,19.80
2016-10-20T08:19:11.944Z,19.80
2016-10-20T08:20:12.535Z,19.80
2016-10-20T08:21:12.088Z,19.80
2016-10-20T08:22:11.976Z,19.80
2016-10-20T08:23:09.595Z,19.80
2016-10-20T08:24:10.994Z,19.80
2016-10-20T08:25:11.467Z,19.80
2016-10-20T08:26:08.679Z,19.80
2016-10-20T08:27:11.131Z,19.80
2016-10-20T08:28:11.594Z,19.80
2016-10-20T08:29:11.647Z,19.80
2016-10-20T08:30:10.485Z,19.90
2016-10-20T08:31:12.232Z,19.80
2016-10-20T08:32:14.177Z,19.90
2016-10-20T08:33:11.982Z,19.80
2016-10-20T08:34:11.441Z,19.90
2016-10-20T08:35:11.569Z,19.80
2016-10-20T08:36:11.884Z,19.90
2016-10-20T08:37:12.356Z,19.90
2016-10-20T08:38:11.407Z,19.90
2016-10-20T08:39:11.363Z,19.90
2016-10-20T08:40:11.384Z,19.90
2016-10-20T08:41:13.070Z,19.90
2016-10-20T08:42:11.017Z,19.90
2016-10-20T08:43:12.087Z,19.90
2016-10-20T08:44:12.230Z,19.90
2016-10-20T08:45:14.016Z,19.90
2016-10-20T08:46:11.804Z,19.90
2016-10-20T08:47:11.751Z,19.90
2016-10-20T08:48:12.239Z,19.90
2016-10-20T08:49:13.232Z,19.90
2016-10-20T08:50:12.076Z,19.90
2016-10-20T08:51:09.580Z,19.90
2016-10-20T08:52:11.555Z,19.90
2016-10-20T08:53:13.394Z,19.90
2016-10-20T08:54:12.201Z,19.90
2016-10-20T08:55:11.651Z,19.90
2016-10-20T08:56:12.562Z,19.90
2016-10-20T08:57:12.275Z,19.90
2016-10-20T08:58:12.331Z,19.90
2016-10-20T08:59:11.458Z,19.90
2016-10-20T09:00:14.072Z,19.90
2016-10-20T09:01:11.302Z,19.90
2016-10-20T09:02:11.353Z,19.90
2016-10-20T09:03:12.200Z,19.90
2016-10-20T09:04:12.961Z,19.90
2016-10-20T09:05:13.625Z,19.90
2016-10-20T09:06:11.489Z,19.90
2016-10-20T09:07:11.446Z,19.90
2016-10-20T09:08:11.343Z,19.90
2016-10-20T09:09:11.360Z,19.90
2016-10-20T09:10:12.075Z,19.90
2016-10-20T09:11:11.077Z,19.90
2016-10-20T09:12:11.774Z,20.00
2016-10-20T09:13:11.704Z,19.90
2016-10-20T09:14:11.779Z,20.00
2016-10-20T09:15:11.487Z,20.00
2016-10-20T09:16:12.497Z,20.00
2016-10-20T09:17:13.240Z,20.00
2016-10-20T09:18:11.739Z,20.00
2016-10-20T09:19:12.182Z,20.00
2016-10-20T09:20:11.150Z,20.00
2016-10-20T09:21:11.229Z,20.00
2016-10-20T09:22:12.980Z,20.00
2016-10-20T09:23:12.346Z,20.00
2016-10-20T09:24:11.948Z,20.00
2016-10-20T09:25:11.459Z,20.00
2016-10-20T09:26:12.197Z,20.00
2016-10-20T09:27:10.279Z,20.00
2016-10-20T09:28:12.373Z,20.00
2016-10-20T09:29:13.059Z,20.00
2016-10-20T09:30:11.793Z,20.00
2016-10-20T09:31:09.022Z,20.00
2016-10-20T09:32:11.344Z,20.00
2016-10-20T09:33:11.828Z,20.00
2016-10-20T09:34:11.792Z,20.00
2016-10-20T09:35:11.911Z,20.00
2016-10-20T09:36:13.673Z,20.10
2016-10-20T09:37:11.533Z,20.00
2016-10-20T09:38:11.476Z,20.00
2016-10-20T09:39:11.849Z,20.10
2016-10-20T09:40:11.842Z,20.00
2016-10-20T09:41:12.477Z,20.10
2016-10-20T09:42:12.279Z,20.10
2016-10-20T09:43:11.361Z,20.10
2016-10-20T09:44:12.395Z,20.10
2016-10-20T09:45:12.387Z,20.10
2016-10-20T09:46:12.281Z,20.10
2016-10-20T09:47:11.968Z,20.10
2016-10-20T09:48:12.707Z,20.10
2016-10-20T09:49:11.585Z,20.10
2016-10-20T09:50:11.992Z,20.10
2016-10-20T09:51:11.061Z,20.10
2016-10-20T09:52:11.677Z,20.10
2016-10-20T09:53:11.709Z,20.10
2016-10-20T09:54:12.459Z,20.10
2016-10-20T09:55:12.342Z,20.10
2016-10-20T09:56:11.531Z,20.10
2016-10-20T09:57:11.513Z,20.10
2016-10-20T09:58:12.541Z,20.10
2016-10-20T09:59:12.235Z,20.10
2016-10-20T10:00:11.438Z,20.10
2016-10-20T10:01:10.271Z,20.10
2016-10-20T10:02:12.277Z,20.10
2016-10-20T10:03:11.414Z,20.10
2016-10-20T10:04:11.205Z,20.10
2016-10-20T10:05:11.806Z,20.10
2016-10-20T10:06:11.815Z,20.10
2016-10-20T10:07:12.417Z,20.10
2016-10-20T10:08:13.119Z,20.10
2016-10-20T10:09:11.874Z,20.10
2016-10-20T10:10:12.470Z,20.10
2016-10-20T10:11:12.005Z,20.10
2016-10-20T10:12:11.469Z,20.10
2016-10-20T10:13:11.958Z,20.10
2016-10-20T10:14:12.944Z,20.10
2016-10-20T10:15:09.221Z,20.10
2016-10-20T10:16:12.098Z,20.10
2016-10-20T10:17:09.863Z,20.10
2016-10-20T10:18:12.075Z,20.10
2016-10-20T10:19:11.490Z,20.10
2016-10-20T10:20:12.117Z,20.10
2016-10-20T10:21:11.595Z,20.10
2016-10-20T10:22:11.565Z,20.10
2016-10-20T10:23:13.266Z,20.10
2016-10-20T10:24:11.247Z,20.10
2016-10-20T10:25:12.355Z,20.10
2016-10-20T10:26:11.967Z,20.10
2016-10-20T10:27:11.810Z,20.10
2016-10-20T10:28:11.893Z,20.10
2016-10-20T10:29:14.308Z,20.10
2016-10-20T10:30:12.101Z,20.10
2016-10-20T10:31:13.204Z,20.10
2016-10-20T10:32:12.509Z,20.10
2016-10-20T10:33:12.168Z,20.10
2016-10-20T10:34:09.741Z,20.10
2016-10-20T10:35:11.725Z,20.10
2016-10-20T10:36:11.691Z,20.10
2016-10-20T10:37:13.280Z,20.10
2016-10-20T10:38:11.908Z,20.10
2016-10-20T10:39:10.658Z,20.10
2016-10-20T10:40:12.017Z,20.10
2016-10-20T10:41:11.401Z,20.10
2016-10-20T10:42:11.853Z,20.10
2016-10-20T10:43:12.576Z,20.10
2016-10-20T10:44:11.456Z,20.10
2016-10-20T10:45:12.109Z,20.10
2016-10-20T10:46:11.586Z,20.10
2016-10-20T10:47:12.157Z,20.10
2016-10-20T10:48:12.021Z,20.20
2016-10-20T10:49:11.590Z,20.20
2016-10-20T10:50:12.347Z,20.10
2016-10-20T10:51:11.507Z,20.10
2016-10-20T10:52:11.394Z,20.10
2016-10-20T10:53:11.410Z,20.10
2016-10-20T10:54:11.255Z,20.10
2016-10-20T10:55:09.729Z,20.10
2016-10-20T10:56:11.138Z,20.10
2016-10-20T10:57:12.288Z,20.10
2016-10-20T10:58:11.176Z,20.10
2016-10-20T10:59:12.052Z,20.10
2016-10-20T11:00:12.928Z,20.10
2016-10-20T11:01:12.905Z,20.10
2016-10-20T11:02:11.699Z,20.10
2016-10-20T11:03:11.601Z,20.10
2016-10-20T11:04:09.927Z,20.10
2016-10-20T11:05:11.725Z,20.10
2016-10-20T11:06:10.106Z,20.10
2016-10-20T11:07:11.589Z,20.10
2016-10-20T11:08:11.977Z,20.10
2016-10-20T11:09:09.704Z,20.10
2016-10-20T11:10:10.980Z,20.10
2016-10-20T11:11:13.382Z,20.10
2016-10-20T11:12:11.355Z,20.10
2016-10-20T11:13:11.418Z,20.10
2016-10-20T11:14:12.040Z,20.10
2016-10-20T11:15:11.810Z,20.10
2016-10-20T11:16:11.938Z,20.10
2016-10-20T11:17:12.512Z,20.10
2016-10-20T11:18:12.335Z,20.10
2016-10-20T11:19:11.358Z,20.10
2016-10-20T11:20:11.399Z,20.10
2016-10-20T11:21:11.621Z,20.10
2016-10-20T11:22:12.314Z,20.10
2016-10-20T11:23:12.147Z,20.10
2016-10-20T11:24:12.761Z,20.10
2016-10-20T11:25:10.028Z,20.10
2016-10-20T11:26:12.036Z,20.10
2016-10-20T11:27:11.657Z,20.10
2016-10-20T11:28:11.712Z,20.10
2016-10-20T11:29:12.222Z,20.10
2016-10-20T11:30:12.651Z,20.20
2016-10-20T11:31:10.543Z,20.10
2016-10-20T11:32:11.872Z,20.10
2016-10-20T11:33:11.928Z,20.10
2016-10-20T11:34:11.903Z,20.10
2016-10-20T11:35:12.424Z,20.10
2016-10-20T11:36:11.913Z,20.10
2016-10-20T11:37:12.381Z,20.10
2016-10-20T11:38:11.482Z,20.10
2016-10-20T11:39:12.754Z,20.10
2016-10-20T11:40:11.925Z,20.10
2016-10-20T11:41:13.314Z,20.20
2016-10-20T11:42:19.020Z,20.20
2016-10-20T11:43:11.729Z,20.20
2016-10-20T11:44:11.454Z,20.20
2016-10-20T11:45:11.936Z,20.20
2016-10-20T11:46:11.832Z,20.20
2016-10-20T11:47:12.530Z,20.20
2016-10-20T11:48:13.064Z,20.20
2016-10-20T11:49:11.806Z,20.20
2016-10-20T11:50:12.288Z,20.30
2016-10-20T11:51:11.063Z,20.30
2016-10-20T11:52:11.125Z,20.30
2016-10-20T11:53:11.279Z,20.30
2016-10-20T11:54:11.866Z,20.30
2016-10-20T11:55:12.680Z,20.30
2016-10-20T11:56:12.336Z,20.30
2016-10-20T11:57:12.163Z,20.30
2016-10-20T11:58:12.948Z,20.30
2016-10-20T11:59:12.685Z,20.30
2016-10-20T12:00:10.122Z,20.30
2016-10-20T12:01:12.264Z,20.30
2016-10-20T12:02:11.805Z,20.30
2016-10-20T12:03:12.356Z,20.40
2016-10-20T12:04:11.962Z,20.30
2016-10-20T12:05:11.092Z,20.40
2016-10-20T12:06:11.896Z,20.40
2016-10-20T12:07:13.716Z,20.40
2016-10-20T12:08:11.873Z,20.30
2016-10-20T12:09:12.188Z,20.30
2016-10-20T12:10:11.766Z,20.30
2016-10-20T12:11:11.858Z,20.30
2016-10-20T12:12:11.815Z,20.30
2016-10-20T12:13:11.771Z,20.20
2016-10-20T12:14:11.802Z,20.30
2016-10-20T12:15:12.826Z,20.30
2016-10-20T12:16:12.655Z,20.30
2016-10-20T12:17:13.282Z,20.30
2016-10-20T12:18:11.123Z,20.30
2016-10-20T12:19:11.476Z,20.30
2016-10-20T12:20:12.076Z,20.30
2016-10-20T12:21:12.246Z,20.30
2016-10-20T12:22:11.216Z,20.30
2016-10-20T12:23:10.084Z,20.20
2016-10-20T12:24:11.281Z,20.20
2016-10-20T12:25:11.225Z,20.20
2016-10-20T12:26:11.846Z,20.20
2016-10-20T12:27:11.912Z,20.20
2016-10-20T12:28:11.801Z,20.20
2016-10-20T12:29:12.471Z,20.20
2016-10-20T12:30:11.410Z,20.20
2016-10-20T12:31:11.924Z,20.20
2016-10-20T12:32:13.415Z,20.20
2016-10-20T12:33:13.508Z,20.20
2016-10-20T12:34:13.489Z,20.20
2016-10-20T12:35:12.203Z,20.20
2016-10-20T12:36:11.406Z,20.20
2016-10-20T12:37:12.454Z,20.20
2016-10-20T12:38:12.158Z,20.20
2016-10-20T12:39:11.770Z,20.20
2016-10-20T12:40:11.617Z,20.10
2016-10-20T12:41:11.447Z,20.10
2016-10-20T12:42:11.353Z,20.10
2016-10-20T12:43:11.348Z,20.10
2016-10-20T12:44:11.274Z,20.10
2016-10-20T12:45:11.807Z,20.10
2016-10-20T12:46:10.310Z,20.20
2016-10-20T12:47:11.791Z,20.10
2016-10-20T12:48:12.408Z,20.10
2016-10-20T12:49:12.282Z,20.10
2016-10-20T12:50:12.739Z,20.10
2016-10-20T12:51:12.361Z,20.10
2016-10-20T12:52:10.545Z,20.10